sensor_id;sensor_type;location;lat;lon;timestamp;P1;durP1;ratioP1;P2;durP2;ratioP2
7446;SDS011;3765;47.962;7.952;2023-01-30T00:01:22;17.67;;;9.20;;
7446;SDS011;3765;47.962;7.952;2023-01-30T00:03:52;20.00;;;13.20;;
7446;SDS011;3765;47.962;7.952;2023-01-30T00:06:21;25.50;;;16.50;;
7446;SDS011;3765;47.962;7.952;2023-01-30T00:08:50;23.70;;;14.00;;
7446;SDS011;3765;47.962;7.952;2023-01-30T00:11:18;17.40;;;10.80;;
7446;SDS011;3765;47.962;7.952;2023-01-30T00:13:47;16.73;;;10.13;;
7446;SDS011;3765;47.962;7.952;2023-01-30T00:16:17;18.53;;;10.37;;
7446;SDS011;3765;47.962;7.952;2023-01-30T00:18:46;16.87;;;9.80;;
7446;SDS011;3765;47.962;7.952;2023-01-30T00:21:14;19.73;;;11.57;;
7446;SDS011;3765;47.962;7.952;2023-01-30T00:23:42;19.63;;;10.90;;
7446;SDS011;3765;47.962;7.952;2023-01-30T00:26:11;18.03;;;9.70;;
7446;SDS011;3765;47.962;7.952;2023-01-30T00:28:40;17.00;;;9.13;;
7446;SDS011;3765;47.962;7.952;2023-01-30T00:31:08;56.33;;;25.77;;
7446;SDS011;3765;47.962;7.952;2023-01-30T00:33:37;15.60;;;8.10;;
7446;SDS011;3765;47.962;7.952;2023-01-30T00:36:06;18.70;;;10.17;;
7446;SDS011;3765;47.962;7.952;2023-01-30T00:38:35;19.50;;;8.70;;
7446;SDS011;3765;47.962;7.952;2023-01-30T00:41:04;20.20;;;10.27;;
7446;SDS011;3765;47.962;7.952;2023-01-30T00:43:32;19.90;;;10.53;;
7446;SDS011;3765;47.962;7.952;2023-01-30T00:46:20;14.57;;;8.13;;
7446;SDS011;3765;47.962;7.952;2023-01-30T00:49:13;27.60;;;12.97;;
7446;SDS011;3765;47.962;7.952;2023-01-30T00:51:41;15.50;;;8.40;;
7446;SDS011;3765;47.962;7.952;2023-01-30T00:54:09;13.87;;;8.00;;
7446;SDS011;3765;47.962;7.952;2023-01-30T00:56:38;15.40;;;8.60;;
7446;SDS011;3765;47.962;7.952;2023-01-30T00:59:06;15.00;;;7.53;;
7446;SDS011;3765;47.962;7.952;2023-01-30T01:01:34;19.63;;;9.03;;
7446;SDS011;3765;47.962;7.952;2023-01-30T01:04:04;18.30;;;9.37;;
7446;SDS011;3765;47.962;7.952;2023-01-30T01:06:35;18.23;;;9.70;;
7446;SDS011;3765;47.962;7.952;2023-01-30T01:09:03;17.03;;;9.10;;
7446;SDS011;3765;47.962;7.952;2023-01-30T01:11:32;20.43;;;10.27;;
7446;SDS011;3765;47.962;7.952;2023-01-30T01:14:01;17.03;;;8.47;;
7446;SDS011;3765;47.962;7.952;2023-01-30T01:16:31;17.80;;;9.70;;
7446;SDS011;3765;47.962;7.952;2023-01-30T01:19:00;15.70;;;8.50;;
7446;SDS011;3765;47.962;7.952;2023-01-30T01:21:28;17.87;;;8.13;;
7446;SDS011;3765;47.962;7.952;2023-01-30T01:23:58;21.20;;;11.30;;
7446;SDS011;3765;47.962;7.952;2023-01-30T01:26:27;19.87;;;9.77;;
7446;SDS011;3765;47.962;7.952;2023-01-30T01:28:55;59.90;;;30.30;;
7446;SDS011;3765;47.962;7.952;2023-01-30T01:31:24;25.03;;;12.30;;
7446;SDS011;3765;47.962;7.952;2023-01-30T01:33:53;14.50;;;8.17;;
7446;SDS011;3765;47.962;7.952;2023-01-30T01:36:21;13.73;;;7.93;;
7446;SDS011;3765;47.962;7.952;2023-01-30T01:39:11;14.67;;;8.37;;
7446;SDS011;3765;47.962;7.952;2023-01-30T01:41:39;16.70;;;8.60;;
7446;SDS011;3765;47.962;7.952;2023-01-30T01:44:07;16.33;;;8.40;;
7446;SDS011;3765;47.962;7.952;2023-01-30T01:46:37;15.80;;;8.83;;
7446;SDS011;3765;47.962;7.952;2023-01-30T01:49:11;15.53;;;9.13;;
7446;SDS011;3765;47.962;7.952;2023-01-30T01:51:45;19.97;;;9.80;;
7446;SDS011;3765;47.962;7.952;2023-01-30T01:54:20;19.67;;;11.47;;
7446;SDS011;3765;47.962;7.952;2023-01-30T01:56:52;19.07;;;11.80;;
7446;SDS011;3765;47.962;7.952;2023-01-30T01:59:22;18.13;;;10.27;;
7446;SDS011;3765;47.962;7.952;2023-01-30T02:01:57;18.00;;;10.27;;
7446;SDS011;3765;47.962;7.952;2023-01-30T02:04:32;19.17;;;10.70;;
7446;SDS011;3765;47.962;7.952;2023-01-30T02:07:20;22.03;;;12.00;;
7446;SDS011;3765;47.962;7.952;2023-01-30T02:09:59;20.77;;;11.77;;
7446;SDS011;3765;47.962;7.952;2023-01-30T02:12:32;27.27;;;15.90;;
7446;SDS011;3765;47.962;7.952;2023-01-30T02:15:00;17.37;;;11.70;;
7446;SDS011;3765;47.962;7.952;2023-01-30T02:17:33;18.87;;;11.40;;
7446;SDS011;3765;47.962;7.952;2023-01-30T02:20:02;23.90;;;12.67;;
7446;SDS011;3765;47.962;7.952;2023-01-30T02:32:12;15.83;;;9.27;;
7446;SDS011;3765;47.962;7.952;2023-01-30T02:34:49;16.53;;;8.10;;
7446;SDS011;3765;47.962;7.952;2023-01-30T02:37:27;15.67;;;8.50;;
7446;SDS011;3765;47.962;7.952;2023-01-30T02:40:10;24.80;;;9.47;;
7446;SDS011;3765;47.962;7.952;2023-01-30T02:43:07;15.17;;;7.90;;
7446;SDS011;3765;47.962;7.952;2023-01-30T02:45:48;14.50;;;8.40;;
7446;SDS011;3765;47.962;7.952;2023-01-30T02:48:26;14.60;;;7.90;;
7446;SDS011;3765;47.962;7.952;2023-01-30T02:51:03;13.40;;;6.97;;
7446;SDS011;3765;47.962;7.952;2023-01-30T02:53:37;19.13;;;8.17;;
7446;SDS011;3765;47.962;7.952;2023-01-30T02:56:14;14.90;;;7.80;;
7446;SDS011;3765;47.962;7.952;2023-01-30T02:58:47;18.10;;;7.33;;
7446;SDS011;3765;47.962;7.952;2023-01-30T03:01:31;12.60;;;7.20;;
7446;SDS011;3765;47.962;7.952;2023-01-30T03:04:47;14.23;;;8.07;;
7446;SDS011;3765;47.962;7.952;2023-01-30T03:07:31;15.90;;;9.50;;
7446;SDS011;3765;47.962;7.952;2023-01-30T03:10:14;17.47;;;10.20;;
7446;SDS011;3765;47.962;7.952;2023-01-30T03:12:53;17.37;;;10.57;;
7446;SDS011;3765;47.962;7.952;2023-01-30T03:15:34;19.03;;;10.97;;
7446;SDS011;3765;47.962;7.952;2023-01-30T03:18:08;15.20;;;8.13;;
7446;SDS011;3765;47.962;7.952;2023-01-30T03:20:44;16.17;;;7.83;;
7446;SDS011;3765;47.962;7.952;2023-01-30T03:23:16;15.30;;;8.87;;
7446;SDS011;3765;47.962;7.952;2023-01-30T03:25:47;14.30;;;8.20;;
7446;SDS011;3765;47.962;7.952;2023-01-30T03:28:17;19.70;;;8.93;;
7446;SDS011;3765;47.962;7.952;2023-01-30T03:30:47;14.60;;;8.73;;
7446;SDS011;3765;47.962;7.952;2023-01-30T03:33:31;14.70;;;7.97;;
7446;SDS011;3765;47.962;7.952;2023-01-30T03:36:06;14.90;;;8.13;;
7446;SDS011;3765;47.962;7.952;2023-01-30T03:38:38;15.67;;;8.47;;
7446;SDS011;3765;47.962;7.952;2023-01-30T03:41:10;15.70;;;9.27;;
7446;SDS011;3765;47.962;7.952;2023-01-30T03:43:40;18.63;;;8.57;;
7446;SDS011;3765;47.962;7.952;2023-01-30T03:46:09;13.63;;;7.90;;
7446;SDS011;3765;47.962;7.952;2023-01-30T03:48:39;14.60;;;8.20;;
7446;SDS011;3765;47.962;7.952;2023-01-30T03:51:11;14.17;;;8.20;;
7446;SDS011;3765;47.962;7.952;2023-01-30T03:53:40;16.17;;;9.13;;
7446;SDS011;3765;47.962;7.952;2023-01-30T03:56:12;16.00;;;9.10;;
7446;SDS011;3765;47.962;7.952;2023-01-30T03:58:44;14.80;;;8.50;;
7446;SDS011;3765;47.962;7.952;2023-01-30T04:01:12;16.43;;;9.27;;
7446;SDS011;3765;47.962;7.952;2023-01-30T04:03:45;14.60;;;8.60;;
7446;SDS011;3765;47.962;7.952;2023-01-30T04:06:20;15.57;;;8.70;;
7446;SDS011;3765;47.962;7.952;2023-01-30T04:08:51;15.57;;;9.13;;
7446;SDS011;3765;47.962;7.952;2023-01-30T04:11:22;16.03;;;9.17;;
7446;SDS011;3765;47.962;7.952;2023-01-30T04:13:55;15.77;;;8.30;;
7446;SDS011;3765;47.962;7.952;2023-01-30T04:16:32;17.53;;;9.17;;
7446;SDS011;3765;47.962;7.952;2023-01-30T04:19:03;51.47;;;27.00;;
7446;SDS011;3765;47.962;7.952;2023-01-30T04:21:35;27.27;;;14.43;;
7446;SDS011;3765;47.962;7.952;2023-01-30T04:24:06;31.57;;;16.83;;
7446;SDS011;3765;47.962;7.952;2023-01-30T04:26:35;26.93;;;15.83;;
7446;SDS011;3765;47.962;7.952;2023-01-30T04:29:05;22.20;;;13.13;;
7446;SDS011;3765;47.962;7.952;2023-01-30T04:31:36;21.10;;;13.03;;
7446;SDS011;3765;47.962;7.952;2023-01-30T04:34:06;22.57;;;13.67;;
7446;SDS011;3765;47.962;7.952;2023-01-30T04:36:38;22.07;;;12.20;;
7446;SDS011;3765;47.962;7.952;2023-01-30T04:39:09;20.00;;;10.67;;
7446;SDS011;3765;47.962;7.952;2023-01-30T04:41:37;21.30;;;11.77;;
7446;SDS011;3765;47.962;7.952;2023-01-30T04:44:08;17.53;;;10.83;;
7446;SDS011;3765;47.962;7.952;2023-01-30T04:46:37;19.80;;;10.60;;
7446;SDS011;3765;47.962;7.952;2023-01-30T04:49:08;19.43;;;10.40;;
7446;SDS011;3765;47.962;7.952;2023-01-30T04:51:40;16.00;;;10.07;;
7446;SDS011;3765;47.962;7.952;2023-01-30T04:54:11;23.17;;;13.60;;
7446;SDS011;3765;47.962;7.952;2023-01-30T04:56:39;21.20;;;13.00;;
7446;SDS011;3765;47.962;7.952;2023-01-30T04:59:11;23.60;;;13.03;;
7446;SDS011;3765;47.962;7.952;2023-01-30T05:01:41;19.97;;;12.17;;
7446;SDS011;3765;47.962;7.952;2023-01-30T05:04:11;21.13;;;12.10;;
7446;SDS011;3765;47.962;7.952;2023-01-30T05:06:50;22.40;;;13.87;;
7446;SDS011;3765;47.962;7.952;2023-01-30T05:09:20;18.77;;;12.40;;
7446;SDS011;3765;47.962;7.952;2023-01-30T05:11:48;20.53;;;12.53;;
7446;SDS011;3765;47.962;7.952;2023-01-30T05:14:17;26.40;;;16.60;;
7446;SDS011;3765;47.962;7.952;2023-01-30T05:16:52;19.73;;;13.20;;
7446;SDS011;3765;47.962;7.952;2023-01-30T05:19:20;20.63;;;12.70;;
7446;SDS011;3765;47.962;7.952;2023-01-30T05:21:53;22.40;;;13.07;;
7446;SDS011;3765;47.962;7.952;2023-01-30T05:24:21;25.40;;;12.60;;
7446;SDS011;3765;47.962;7.952;2023-01-30T05:26:50;18.47;;;11.50;;
7446;SDS011;3765;47.962;7.952;2023-01-30T05:29:20;26.40;;;12.90;;
7446;SDS011;3765;47.962;7.952;2023-01-30T05:31:49;20.43;;;12.37;;
7446;SDS011;3765;47.962;7.952;2023-01-30T05:34:18;22.13;;;12.90;;
7446;SDS011;3765;47.962;7.952;2023-01-30T05:36:46;23.70;;;12.70;;
7446;SDS011;3765;47.962;7.952;2023-01-30T05:39:21;24.40;;;14.23;;
7446;SDS011;3765;47.962;7.952;2023-01-30T05:41:50;21.50;;;13.07;;
7446;SDS011;3765;47.962;7.952;2023-01-30T05:44:22;31.13;;;13.80;;
7446;SDS011;3765;47.962;7.952;2023-01-30T05:46:51;24.10;;;14.17;;
7446;SDS011;3765;47.962;7.952;2023-01-30T05:49:36;39.10;;;21.33;;
7446;SDS011;3765;47.962;7.952;2023-01-30T05:52:06;25.70;;;13.40;;
7446;SDS011;3765;47.962;7.952;2023-01-30T05:54:36;22.87;;;14.90;;
7446;SDS011;3765;47.962;7.952;2023-01-30T05:57:04;23.47;;;14.00;;
7446;SDS011;3765;47.962;7.952;2023-01-30T05:59:32;23.03;;;12.70;;
7446;SDS011;3765;47.962;7.952;2023-01-30T06:02:02;20.90;;;13.00;;
7446;SDS011;3765;47.962;7.952;2023-01-30T06:04:30;64.13;;;40.87;;
7446;SDS011;3765;47.962;7.952;2023-01-30T06:06:58;30.07;;;19.57;;
7446;SDS011;3765;47.962;7.952;2023-01-30T06:09:27;23.93;;;14.80;;
7446;SDS011;3765;47.962;7.952;2023-01-30T06:11:58;21.70;;;12.43;;
7446;SDS011;3765;47.962;7.952;2023-01-30T06:14:27;26.87;;;14.03;;
7446;SDS011;3765;47.962;7.952;2023-01-30T06:16:56;24.20;;;13.50;;
7446;SDS011;3765;47.962;7.952;2023-01-30T06:19:25;21.50;;;12.80;;
7446;SDS011;3765;47.962;7.952;2023-01-30T06:21:57;20.03;;;11.87;;
7446;SDS011;3765;47.962;7.952;2023-01-30T06:24:27;20.80;;;12.33;;
7446;SDS011;3765;47.962;7.952;2023-01-30T06:26:58;22.70;;;13.50;;
7446;SDS011;3765;47.962;7.952;2023-01-30T06:29:27;27.63;;;17.70;;
7446;SDS011;3765;47.962;7.952;2023-01-30T06:31:57;30.77;;;15.67;;
7446;SDS011;3765;47.962;7.952;2023-01-30T06:34:29;20.73;;;13.10;;
7446;SDS011;3765;47.962;7.952;2023-01-30T06:36:57;21.40;;;13.47;;
7446;SDS011;3765;47.962;7.952;2023-01-30T06:39:30;22.97;;;12.73;;
7446;SDS011;3765;47.962;7.952;2023-01-30T06:42:03;22.23;;;12.73;;
7446;SDS011;3765;47.962;7.952;2023-01-30T06:44:34;27.23;;;13.07;;
7446;SDS011;3765;47.962;7.952;2023-01-30T06:47:03;18.93;;;12.13;;
7446;SDS011;3765;47.962;7.952;2023-01-30T06:49:32;22.43;;;12.17;;
7446;SDS011;3765;47.962;7.952;2023-01-30T06:52:02;21.10;;;12.37;;
7446;SDS011;3765;47.962;7.952;2023-01-30T06:54:31;22.33;;;12.27;;
7446;SDS011;3765;47.962;7.952;2023-01-30T06:57:05;19.77;;;12.07;;
7446;SDS011;3765;47.962;7.952;2023-01-30T06:59:33;19.00;;;11.97;;
7446;SDS011;3765;47.962;7.952;2023-01-30T07:02:01;20.03;;;12.27;;
7446;SDS011;3765;47.962;7.952;2023-01-30T07:04:34;20.70;;;12.43;;
7446;SDS011;3765;47.962;7.952;2023-01-30T07:07:02;19.23;;;12.00;;
7446;SDS011;3765;47.962;7.952;2023-01-30T07:09:33;18.90;;;11.60;;
7446;SDS011;3765;47.962;7.952;2023-01-30T07:12:08;23.93;;;13.40;;
7446;SDS011;3765;47.962;7.952;2023-01-30T07:14:37;25.43;;;13.93;;
7446;SDS011;3765;47.962;7.952;2023-01-30T07:17:09;21.10;;;13.10;;
7446;SDS011;3765;47.962;7.952;2023-01-30T07:19:39;20.93;;;12.43;;
7446;SDS011;3765;47.962;7.952;2023-01-30T07:22:08;19.60;;;12.50;;
7446;SDS011;3765;47.962;7.952;2023-01-30T07:24:45;19.83;;;11.20;;
7446;SDS011;3765;47.962;7.952;2023-01-30T07:27:17;20.53;;;12.57;;
7446;SDS011;3765;47.962;7.952;2023-01-30T07:29:49;22.20;;;13.80;;
7446;SDS011;3765;47.962;7.952;2023-01-30T07:32:21;20.13;;;12.97;;
7446;SDS011;3765;47.962;7.952;2023-01-30T07:34:59;28.07;;;13.60;;
7446;SDS011;3765;47.962;7.952;2023-01-30T07:37:31;24.60;;;15.37;;
7446;SDS011;3765;47.962;7.952;2023-01-30T07:40:01;24.00;;;15.67;;
7446;SDS011;3765;47.962;7.952;2023-01-30T07:42:33;46.00;;;28.27;;
7446;SDS011;3765;47.962;7.952;2023-01-30T07:45:03;50.83;;;28.97;;
7446;SDS011;3765;47.962;7.952;2023-01-30T07:47:31;46.57;;;28.30;;
7446;SDS011;3765;47.962;7.952;2023-01-30T07:49:59;46.47;;;28.60;;
7446;SDS011;3765;47.962;7.952;2023-01-30T07:52:28;37.53;;;22.70;;
7446;SDS011;3765;47.962;7.952;2023-01-30T07:54:56;27.40;;;15.03;;
7446;SDS011;3765;47.962;7.952;2023-01-30T07:57:26;23.70;;;14.83;;
7446;SDS011;3765;47.962;7.952;2023-01-30T07:59:57;24.03;;;14.07;;
7446;SDS011;3765;47.962;7.952;2023-01-30T08:02:25;23.20;;;14.77;;
7446;SDS011;3765;47.962;7.952;2023-01-30T08:04:54;25.17;;;16.77;;
7446;SDS011;3765;47.962;7.952;2023-01-30T08:07:22;26.33;;;13.40;;
7446;SDS011;3765;47.962;7.952;2023-01-30T08:09:50;23.00;;;13.40;;
7446;SDS011;3765;47.962;7.952;2023-01-30T08:12:18;21.97;;;13.73;;
7446;SDS011;3765;47.962;7.952;2023-01-30T08:14:47;22.60;;;14.50;;
7446;SDS011;3765;47.962;7.952;2023-01-30T08:17:16;23.60;;;15.80;;
7446;SDS011;3765;47.962;7.952;2023-01-30T08:19:45;26.37;;;18.00;;
7446;SDS011;3765;47.962;7.952;2023-01-30T08:22:13;25.87;;;16.33;;
7446;SDS011;3765;47.962;7.952;2023-01-30T08:24:41;23.43;;;13.63;;
7446;SDS011;3765;47.962;7.952;2023-01-30T08:27:09;21.53;;;13.50;;
7446;SDS011;3765;47.962;7.952;2023-01-30T08:29:38;27.90;;;14.47;;
7446;SDS011;3765;47.962;7.952;2023-01-30T08:32:06;19.83;;;12.83;;
7446;SDS011;3765;47.962;7.952;2023-01-30T08:34:35;20.70;;;14.00;;
7446;SDS011;3765;47.962;7.952;2023-01-30T08:37:04;23.17;;;14.43;;
7446;SDS011;3765;47.962;7.952;2023-01-30T08:39:32;21.47;;;13.30;;
7446;SDS011;3765;47.962;7.952;2023-01-30T08:42:02;20.80;;;13.10;;
7446;SDS011;3765;47.962;7.952;2023-01-30T08:44:30;21.20;;;13.70;;
7446;SDS011;3765;47.962;7.952;2023-01-30T08:46:58;19.13;;;12.60;;
7446;SDS011;3765;47.962;7.952;2023-01-30T08:49:27;21.77;;;13.60;;
7446;SDS011;3765;47.962;7.952;2023-01-30T08:51:56;19.13;;;11.90;;
7446;SDS011;3765;47.962;7.952;2023-01-30T08:54:24;22.00;;;13.53;;
7446;SDS011;3765;47.962;7.952;2023-01-30T08:56:52;22.27;;;13.23;;
7446;SDS011;3765;47.962;7.952;2023-01-30T08:59:21;18.40;;;11.97;;
7446;SDS011;3765;47.962;7.952;2023-01-30T09:01:49;21.77;;;12.50;;
7446;SDS011;3765;47.962;7.952;2023-01-30T09:04:17;18.67;;;11.93;;
7446;SDS011;3765;47.962;7.952;2023-01-30T09:06:46;21.70;;;12.70;;
7446;SDS011;3765;47.962;7.952;2023-01-30T09:09:16;20.03;;;12.00;;
7446;SDS011;3765;47.962;7.952;2023-01-30T09:11:44;18.23;;;11.27;;
7446;SDS011;3765;47.962;7.952;2023-01-30T09:14:13;20.60;;;12.50;;
7446;SDS011;3765;47.962;7.952;2023-01-30T09:16:44;21.77;;;12.77;;
7446;SDS011;3765;47.962;7.952;2023-01-30T09:19:13;21.23;;;11.80;;
7446;SDS011;3765;47.962;7.952;2023-01-30T09:21:41;20.63;;;12.40;;
7446;SDS011;3765;47.962;7.952;2023-01-30T09:24:09;19.07;;;11.50;;
7446;SDS011;3765;47.962;7.952;2023-01-30T09:26:39;28.00;;;12.67;;
7446;SDS011;3765;47.962;7.952;2023-01-30T09:29:10;20.03;;;12.23;;
7446;SDS011;3765;47.962;7.952;2023-01-30T09:31:38;18.20;;;10.60;;
7446;SDS011;3765;47.962;7.952;2023-01-30T09:34:07;22.90;;;11.17;;
7446;SDS011;3765;47.962;7.952;2023-01-30T09:36:35;68.83;;;14.43;;
7446;SDS011;3765;47.962;7.952;2023-01-30T09:39:03;23.10;;;13.03;;
7446;SDS011;3765;47.962;7.952;2023-01-30T09:41:36;18.00;;;10.63;;
7446;SDS011;3765;47.962;7.952;2023-01-30T09:44:42;29.60;;;11.17;;
7446;SDS011;3765;47.962;7.952;2023-01-30T09:47:23;21.47;;;12.17;;
7446;SDS011;3765;47.962;7.952;2023-01-30T09:50:03;18.83;;;11.30;;
7446;SDS011;3765;47.962;7.952;2023-01-30T09:52:50;21.80;;;11.37;;
7446;SDS011;3765;47.962;7.952;2023-01-30T09:55:23;20.93;;;11.10;;
7446;SDS011;3765;47.962;7.952;2023-01-30T09:57:56;47.03;;;12.57;;
7446;SDS011;3765;47.962;7.952;2023-01-30T10:00:27;21.67;;;11.73;;
7446;SDS011;3765;47.962;7.952;2023-01-30T10:03:01;61.03;;;30.00;;
7446;SDS011;3765;47.962;7.952;2023-01-30T10:05:37;33.97;;;18.23;;
7446;SDS011;3765;47.962;7.952;2023-01-30T10:08:15;20.43;;;11.73;;
7446;SDS011;3765;47.962;7.952;2023-01-30T10:11:09;32.63;;;14.37;;
7446;SDS011;3765;47.962;7.952;2023-01-30T10:13:50;27.03;;;11.07;;
7446;SDS011;3765;47.962;7.952;2023-01-30T10:16:41;36.90;;;13.50;;
7446;SDS011;3765;47.962;7.952;2023-01-30T10:22:13;100.30;;;14.30;;
7446;SDS011;3765;47.962;7.952;2023-01-30T10:24:55;45.13;;;13.63;;
7446;SDS011;3765;47.962;7.952;2023-01-30T10:27:31;44.10;;;12.63;;
7446;SDS011;3765;47.962;7.952;2023-01-30T10:30:04;42.67;;;12.80;;
7446;SDS011;3765;47.962;7.952;2023-01-30T10:32:42;19.30;;;11.20;;
7446;SDS011;3765;47.962;7.952;2023-01-30T10:35:15;34.17;;;14.10;;
7446;SDS011;3765;47.962;7.952;2023-01-30T10:37:49;20.23;;;10.33;;
7446;SDS011;3765;47.962;7.952;2023-01-30T10:40:23;48.83;;;13.30;;
7446;SDS011;3765;47.962;7.952;2023-01-30T10:42:57;38.73;;;10.67;;
7446;SDS011;3765;47.962;7.952;2023-01-30T10:45:33;29.17;;;12.60;;
7446;SDS011;3765;47.962;7.952;2023-01-30T10:48:20;27.53;;;12.50;;
7446;SDS011;3765;47.962;7.952;2023-01-30T10:51:13;21.20;;;11.43;;
7446;SDS011;3765;47.962;7.952;2023-01-30T10:53:50;24.50;;;11.67;;
7446;SDS011;3765;47.962;7.952;2023-01-30T10:56:27;27.50;;;12.20;;
7446;SDS011;3765;47.962;7.952;2023-01-30T10:59:03;18.07;;;11.20;;
7446;SDS011;3765;47.962;7.952;2023-01-30T11:01:44;52.03;;;12.53;;
7446;SDS011;3765;47.962;7.952;2023-01-30T11:04:21;21.53;;;11.10;;
7446;SDS011;3765;47.962;7.952;2023-01-30T11:06:55;38.90;;;11.30;;
7446;SDS011;3765;47.962;7.952;2023-01-30T11:09:36;19.90;;;11.10;;
7446;SDS011;3765;47.962;7.952;2023-01-30T11:12:05;86.63;;;12.63;;
7446;SDS011;3765;47.962;7.952;2023-01-30T11:17:32;17.27;;;10.13;;
7446;SDS011;3765;47.962;7.952;2023-01-30T11:20:04;17.00;;;9.50;;
7446;SDS011;3765;47.962;7.952;2023-01-30T11:22:44;22.03;;;10.37;;
7446;SDS011;3765;47.962;7.952;2023-01-30T11:25:14;20.63;;;9.83;;
7446;SDS011;3765;47.962;7.952;2023-01-30T11:27:50;18.67;;;10.97;;
7446;SDS011;3765;47.962;7.952;2023-01-30T11:30:20;24.53;;;11.00;;
7446;SDS011;3765;47.962;7.952;2023-01-30T11:33:03;96.67;;;13.63;;
7446;SDS011;3765;47.962;7.952;2023-01-30T11:35:37;35.63;;;11.00;;
7446;SDS011;3765;47.962;7.952;2023-01-30T11:38:11;48.73;;;12.30;;
7446;SDS011;3765;47.962;7.952;2023-01-30T11:40:46;19.40;;;10.33;;
7446;SDS011;3765;47.962;7.952;2023-01-30T11:43:15;37.40;;;11.00;;
7446;SDS011;3765;47.962;7.952;2023-01-30T11:45:44;21.10;;;10.30;;
7446;SDS011;3765;47.962;7.952;2023-01-30T11:48:16;27.30;;;10.70;;
7446;SDS011;3765;47.962;7.952;2023-01-30T11:51:07;24.40;;;10.17;;
7446;SDS011;3765;47.962;7.952;2023-01-30T11:53:37;80.37;;;12.30;;
7446;SDS011;3765;47.962;7.952;2023-01-30T11:56:11;15.10;;;9.10;;
7446;SDS011;3765;47.962;7.952;2023-01-30T11:58:43;21.67;;;9.37;;
7446;SDS011;3765;47.962;7.952;2023-01-30T12:01:15;15.53;;;8.07;;
7446;SDS011;3765;47.962;7.952;2023-01-30T12:03:46;22.60;;;7.63;;
7446;SDS011;3765;47.962;7.952;2023-01-30T12:06:20;56.17;;;9.00;;
7446;SDS011;3765;47.962;7.952;2023-01-30T12:08:54;12.50;;;7.10;;
7446;SDS011;3765;47.962;7.952;2023-01-30T12:11:24;19.80;;;7.60;;
7446;SDS011;3765;47.962;7.952;2023-01-30T12:13:56;13.97;;;6.43;;
7446;SDS011;3765;47.962;7.952;2023-01-30T12:16:45;44.37;;;8.60;;
7446;SDS011;3765;47.962;7.952;2023-01-30T12:19:41;22.00;;;6.63;;
7446;SDS011;3765;47.962;7.952;2023-01-30T12:22:18;38.17;;;7.73;;
7446;SDS011;3765;47.962;7.952;2023-01-30T12:24:54;27.40;;;8.10;;
7446;SDS011;3765;47.962;7.952;2023-01-30T12:27:27;97.90;;;9.90;;
7446;SDS011;3765;47.962;7.952;2023-01-30T12:30:17;35.83;;;8.10;;
7446;SDS011;3765;47.962;7.952;2023-01-30T12:32:50;13.77;;;7.03;;
7446;SDS011;3765;47.962;7.952;2023-01-30T12:35:26;25.63;;;5.80;;
7446;SDS011;3765;47.962;7.952;2023-01-30T12:38:05;14.43;;;6.50;;
7446;SDS011;3765;47.962;7.952;2023-01-30T12:40:42;9.47;;;4.30;;
7446;SDS011;3765;47.962;7.952;2023-01-30T12:43:23;11.07;;;3.17;;
7446;SDS011;3765;47.962;7.952;2023-01-30T12:46:11;7.70;;;2.90;;
7446;SDS011;3765;47.962;7.952;2023-01-30T12:52:05;63.47;;;7.20;;
7446;SDS011;3765;47.962;7.952;2023-01-30T12:54:48;23.83;;;4.53;;
7446;SDS011;3765;47.962;7.952;2023-01-30T12:57:26;11.90;;;5.10;;
7446;SDS011;3765;47.962;7.952;2023-01-30T13:00:03;10.97;;;5.10;;
7446;SDS011;3765;47.962;7.952;2023-01-30T13:02:49;27.77;;;6.20;;
7446;SDS011;3765;47.962;7.952;2023-01-30T13:05:31;18.37;;;6.73;;
7446;SDS011;3765;47.962;7.952;2023-01-30T13:08:09;12.10;;;5.10;;
7446;SDS011;3765;47.962;7.952;2023-01-30T13:10:49;23.00;;;4.60;;
7446;SDS011;3765;47.962;7.952;2023-01-30T13:13:26;10.40;;;3.43;;
7446;SDS011;3765;47.962;7.952;2023-01-30T13:16:02;11.57;;;2.90;;
7446;SDS011;3765;47.962;7.952;2023-01-30T13:18:36;7.70;;;2.73;;
7446;SDS011;3765;47.962;7.952;2023-01-30T13:21:09;18.40;;;4.93;;
7446;SDS011;3765;47.962;7.952;2023-01-30T13:23:50;12.20;;;5.67;;
7446;SDS011;3765;47.962;7.952;2023-01-30T13:26:30;15.73;;;3.97;;
7446;SDS011;3765;47.962;7.952;2023-01-30T13:29:02;10.33;;;3.63;;
7446;SDS011;3765;47.962;7.952;2023-01-30T13:31:38;12.77;;;3.70;;
7446;SDS011;3765;47.962;7.952;2023-01-30T13:34:19;10.77;;;3.70;;
7446;SDS011;3765;47.962;7.952;2023-01-30T13:36:52;8.27;;;3.10;;
7446;SDS011;3765;47.962;7.952;2023-01-30T13:39:29;13.97;;;3.77;;
7446;SDS011;3765;47.962;7.952;2023-01-30T13:42:09;8.97;;;4.20;;
7446;SDS011;3765;47.962;7.952;2023-01-30T13:44:47;15.40;;;7.90;;
7446;SDS011;3765;47.962;7.952;2023-01-30T13:47:22;17.83;;;6.33;;
7446;SDS011;3765;47.962;7.952;2023-01-30T13:50:07;8.67;;;3.90;;
7446;SDS011;3765;47.962;7.952;2023-01-30T13:52:46;10.07;;;4.50;;
7446;SDS011;3765;47.962;7.952;2023-01-30T13:55:24;11.90;;;4.87;;
7446;SDS011;3765;47.962;7.952;2023-01-30T13:58:00;14.40;;;5.20;;
7446;SDS011;3765;47.962;7.952;2023-01-30T14:00:36;9.80;;;4.83;;
7446;SDS011;3765;47.962;7.952;2023-01-30T14:03:21;11.87;;;6.33;;
7446;SDS011;3765;47.962;7.952;2023-01-30T14:06:07;11.43;;;5.60;;
7446;SDS011;3765;47.962;7.952;2023-01-30T14:08:39;12.70;;;5.33;;
7446;SDS011;3765;47.962;7.952;2023-01-30T14:11:33;9.00;;;4.70;;
7446;SDS011;3765;47.962;7.952;2023-01-30T14:14:08;9.67;;;4.70;;
7446;SDS011;3765;47.962;7.952;2023-01-30T14:16:49;8.50;;;4.20;;
7446;SDS011;3765;47.962;7.952;2023-01-30T14:19:24;8.40;;;3.90;;
7446;SDS011;3765;47.962;7.952;2023-01-30T14:22:17;14.13;;;5.83;;
7446;SDS011;3765;47.962;7.952;2023-01-30T14:31:10;8.70;;;3.50;;
7446;SDS011;3765;47.962;7.952;2023-01-30T14:34:00;7.23;;;3.03;;
7446;SDS011;3765;47.962;7.952;2023-01-30T14:36:32;13.13;;;2.63;;
7446;SDS011;3765;47.962;7.952;2023-01-30T14:42:16;6.97;;;2.50;;
7446;SDS011;3765;47.962;7.952;2023-01-30T14:44:56;7.27;;;2.23;;
7446;SDS011;3765;47.962;7.952;2023-01-30T14:47:26;8.17;;;2.80;;
7446;SDS011;3765;47.962;7.952;2023-01-30T14:50:17;5.90;;;1.80;;
7446;SDS011;3765;47.962;7.952;2023-01-30T14:52:47;6.77;;;2.43;;
7446;SDS011;3765;47.962;7.952;2023-01-30T14:55:21;7.57;;;2.60;;
7446;SDS011;3765;47.962;7.952;2023-01-30T14:57:55;6.30;;;2.40;;
7446;SDS011;3765;47.962;7.952;2023-01-30T15:00:27;6.20;;;2.30;;
7446;SDS011;3765;47.962;7.952;2023-01-30T15:02:58;6.90;;;2.20;;
7446;SDS011;3765;47.962;7.952;2023-01-30T15:05:33;11.37;;;5.30;;
7446;SDS011;3765;47.962;7.952;2023-01-30T15:08:06;10.07;;;4.73;;
7446;SDS011;3765;47.962;7.952;2023-01-30T15:10:50;35.13;;;22.93;;
7446;SDS011;3765;47.962;7.952;2023-01-30T15:13:42;16.87;;;11.30;;
7446;SDS011;3765;47.962;7.952;2023-01-30T15:16:19;6.70;;;2.77;;
7446;SDS011;3765;47.962;7.952;2023-01-30T15:19:17;7.13;;;2.60;;
7446;SDS011;3765;47.962;7.952;2023-01-30T15:22:12;7.20;;;3.10;;
7446;SDS011;3765;47.962;7.952;2023-01-30T15:24:49;9.00;;;4.90;;
7446;SDS011;3765;47.962;7.952;2023-01-30T15:27:49;14.43;;;6.37;;
7446;SDS011;3765;47.962;7.952;2023-01-30T15:30:35;8.07;;;4.03;;
7446;SDS011;3765;47.962;7.952;2023-01-30T15:33:15;8.73;;;4.27;;
7446;SDS011;3765;47.962;7.952;2023-01-30T15:35:56;8.30;;;3.30;;
7446;SDS011;3765;47.962;7.952;2023-01-30T15:38:27;7.57;;;3.37;;
7446;SDS011;3765;47.962;7.952;2023-01-30T15:40:58;9.10;;;2.90;;
7446;SDS011;3765;47.962;7.952;2023-01-30T15:46:30;7.90;;;3.10;;
7446;SDS011;3765;47.962;7.952;2023-01-30T15:49:08;7.40;;;3.07;;
7446;SDS011;3765;47.962;7.952;2023-01-30T15:51:49;6.87;;;2.80;;
7446;SDS011;3765;47.962;7.952;2023-01-30T15:54:21;7.80;;;2.77;;
7446;SDS011;3765;47.962;7.952;2023-01-30T15:56:50;7.00;;;2.53;;
7446;SDS011;3765;47.962;7.952;2023-01-30T15:59:24;7.80;;;2.40;;
7446;SDS011;3765;47.962;7.952;2023-01-30T16:01:57;6.50;;;2.60;;
7446;SDS011;3765;47.962;7.952;2023-01-30T16:04:27;7.20;;;2.70;;
7446;SDS011;3765;47.962;7.952;2023-01-30T16:06:56;8.27;;;3.57;;